sensor_id;sensor_type;location;lat;lon;timestamp;pressure;altitude;pressure_sealevel;temperature;humidity
14882;BME280;7533;51.278;12.588;2023-02-20T00:03:01;100839.25;;;23.25;58.37
14882;BME280;7533;51.278;12.588;2023-02-20T00:08:04;100814.25;;;23.08;58.64
14882;BME280;7533;51.278;12.588;2023-02-20T00:13:07;100817.88;;;22.94;59.12
14882;BME280;7533;51.278;12.588;2023-02-20T00:18:12;100820.09;;;23.02;58.86
14882;BME280;7533;51.278;12.588;2023-02-20T00:23:15;100814.00;;;22.99;58.96
14882;BME280;7533;51.278;12.588;2023-02-20T00:28:17;100816.09;;;23.08;58.78
14882;BME280;7533;51.278;12.588;2023-02-20T00:33:22;100809.38;;;23.01;58.72
14882;BME280;7533;51.278;12.588;2023-02-20T00:38:25;100796.97;;;22.98;58.93
14882;BME280;7533;51.278;12.588;2023-02-20T00:43:27;100785.28;;;22.98;58.85
14882;BME280;7533;51.278;12.588;2023-02-20T00:48:33;100770.94;;;22.97;58.98
14882;BME280;7533;51.278;12.588;2023-02-20T00:53:54;100774.81;;;22.93;59.00
14882;BME280;7533;51.278;12.588;2023-02-20T00:58:59;100755.72;;;22.96;58.92
14882;BME280;7533;51.278;12.588;2023-02-20T01:04:03;100757.44;;;22.97;58.99
14882;BME280;7533;51.278;12.588;2023-02-20T01:09:06;100748.47;;;22.96;58.98
14882;BME280;7533;51.278;12.588;2023-02-20T01:14:09;100765.84;;;22.92;59.14
14882;BME280;7533;51.278;12.588;2023-02-20T01:19:14;100766.94;;;22.90;59.13
14882;BME280;7533;51.278;12.588;2023-02-20T01:24:17;100753.59;;;22.87;59.12
14882;BME280;7533;51.278;12.588;2023-02-20T01:29:21;100752.06;;;22.83;59.18
14882;BME280;7533;51.278;12.588;2023-02-20T01:34:26;100760.38;;;22.80;59.13
14882;BME280;7533;51.278;12.588;2023-02-20T01:39:29;100768.78;;;22.75;59.17
14882;BME280;7533;51.278;12.588;2023-02-20T01:44:34;100754.72;;;22.70;59.44
14882;BME280;7533;51.278;12.588;2023-02-20T01:49:41;100763.13;;;22.65;59.48
14882;BME280;7533;51.278;12.588;2023-02-20T01:54:50;100755.34;;;22.61;59.50
14882;BME280;7533;51.278;12.588;2023-02-20T02:00:02;100747.66;;;22.55;59.64
14882;BME280;7533;51.278;12.588;2023-02-20T02:05:16;100737.16;;;22.50;59.68
14882;BME280;7533;51.278;12.588;2023-02-20T02:10:24;100708.69;;;22.46;59.83
14882;BME280;7533;51.278;12.588;2023-02-20T02:15:31;100709.09;;;22.40;60.02
14882;BME280;7533;51.278;12.588;2023-02-20T02:26:28;100707.97;;;22.30;60.29
14882;BME280;7533;51.278;12.588;2023-02-20T02:32:01;100679.47;;;22.26;60.45
14882;BME280;7533;51.278;12.588;2023-02-20T02:37:16;100682.47;;;22.21;60.60
14882;BME280;7533;51.278;12.588;2023-02-20T02:42:28;100690.84;;;22.16;60.84
14882;BME280;7533;51.278;12.588;2023-02-20T02:47:42;100693.78;;;22.13;60.83
14882;BME280;7533;51.278;12.588;2023-02-20T02:52:49;100678.72;;;22.09;61.01
14882;BME280;7533;51.278;12.588;2023-02-20T02:57:54;100685.38;;;22.04;61.16
14882;BME280;7533;51.278;12.588;2023-02-20T03:03:02;100670.28;;;22.01;61.29
14882;BME280;7533;51.278;12.588;2023-02-20T03:08:14;100675.00;;;21.98;61.26
14882;BME280;7533;51.278;12.588;2023-02-20T03:13:24;100681.47;;;21.95;61.38
14882;BME280;7533;51.278;12.588;2023-02-20T03:18:47;100661.94;;;21.91;61.33
14882;BME280;7533;51.278;12.588;2023-02-20T03:23:57;100671.16;;;21.87;61.31
14882;BME280;7533;51.278;12.588;2023-02-20T03:29:06;100656.06;;;21.85;61.40
14882;BME280;7533;51.278;12.588;2023-02-20T03:34:18;100650.88;;;21.82;61.50
14882;BME280;7533;51.278;12.588;2023-02-20T03:39:46;100646.56;;;21.79;61.38
14882;BME280;7533;51.278;12.588;2023-02-20T03:45:09;100650.41;;;21.75;61.50
14882;BME280;7533;51.278;12.588;2023-02-20T03:50:14;100642.44;;;21.74;61.37
14882;BME280;7533;51.278;12.588;2023-02-20T03:55:19;100645.25;;;21.72;61.43
14882;BME280;7533;51.278;12.588;2023-02-20T04:00:26;100655.44;;;21.67;61.31
14882;BME280;7533;51.278;12.588;2023-02-20T04:05:35;100667.25;;;21.64;61.15
14882;BME280;7533;51.278;12.588;2023-02-20T04:10:43;100682.66;;;21.62;61.30
14882;BME280;7533;51.278;12.588;2023-02-20T04:15:49;100685.47;;;21.61;61.27
14882;BME280;7533;51.278;12.588;2023-02-20T04:20:54;100672.19;;;21.58;61.21
14882;BME280;7533;51.278;12.588;2023-02-20T04:26:08;100670.47;;;21.57;61.42
14882;BME280;7533;51.278;12.588;2023-02-20T04:31:17;100655.25;;;21.56;61.52
14882;BME280;7533;51.278;12.588;2023-02-20T04:36:22;100642.09;;;21.51;61.43
14882;BME280;7533;51.278;12.588;2023-02-20T04:41:30;100639.56;;;21.48;61.36
14882;BME280;7533;51.278;12.588;2023-02-20T04:46:33;100644.31;;;21.45;61.29
14882;BME280;7533;51.278;12.588;2023-02-20T04:51:36;100647.06;;;21.43;61.17
14882;BME280;7533;51.278;12.588;2023-02-20T04:56:41;100640.06;;;21.41;61.41
14882;BME280;7533;51.278;12.588;2023-02-20T05:01:44;100629.41;;;21.39;61.40
14882;BME280;7533;51.278;12.588;2023-02-20T05:06:51;100606.22;;;21.36;61.18
14882;BME280;7533;51.278;12.588;2023-02-20T05:11:56;100597.28;;;21.36;61.37
14882;BME280;7533;51.278;12.588;2023-02-20T05:16:59;100592.09;;;21.33;61.38
14882;BME280;7533;51.278;12.588;2023-02-20T05:22:02;100595.72;;;21.32;61.25
14882;BME280;7533;51.278;12.588;2023-02-20T05:27:25;100574.38;;;21.29;61.27
14882;BME280;7533;51.278;12.588;2023-02-20T05:32:29;100549.34;;;21.27;61.19
14882;BME280;7533;51.278;12.588;2023-02-20T05:37:32;100557.53;;;21.25;60.94
14882;BME280;7533;51.278;12.588;2023-02-20T05:42:36;100573.91;;;21.22;60.85
14882;BME280;7533;51.278;12.588;2023-02-20T05:47:39;100575.81;;;21.20;60.98
14882;BME280;7533;51.278;12.588;2023-02-20T05:52:42;100586.59;;;21.20;60.95
14882;BME280;7533;51.278;12.588;2023-02-20T05:57:46;100567.09;;;21.17;60.49
14882;BME280;7533;51.278;12.588;2023-02-20T06:02:49;100573.41;;;21.16;60.49
14882;BME280;7533;51.278;12.588;2023-02-20T06:07:52;100559.19;;;21.13;60.67
14882;BME280;7533;51.278;12.588;2023-02-20T06:12:57;100562.84;;;21.12;60.46
14882;BME280;7533;51.278;12.588;2023-02-20T06:18:00;100542.38;;;21.10;60.56
14882;BME280;7533;51.278;12.588;2023-02-20T06:23:03;100522.66;;;21.09;60.47
14882;BME280;7533;51.278;12.588;2023-02-20T06:28:07;100522.75;;;21.08;60.50
14882;BME280;7533;51.278;12.588;2023-02-20T06:33:10;100533.63;;;21.06;60.47
14882;BME280;7533;51.278;12.588;2023-02-20T06:38:12;100508.63;;;21.04;60.62
14882;BME280;7533;51.278;12.588;2023-02-20T06:43:17;100485.50;;;21.02;60.43
14882;BME280;7533;51.278;12.588;2023-02-20T06:48:20;100495.38;;;21.01;60.51
14882;BME280;7533;51.278;12.588;2023-02-20T06:53:22;100499.06;;;21.00;60.58
14882;BME280;7533;51.278;12.588;2023-02-20T06:58:27;100508.94;;;21.00;60.34
14882;BME280;7533;51.278;12.588;2023-02-20T07:03:29;100517.09;;;20.98;60.62
14882;BME280;7533;51.278;12.588;2023-02-20T07:08:32;100512.78;;;20.96;60.53
14882;BME280;7533;51.278;12.588;2023-02-20T07:13:36;100488.75;;;20.93;60.34
14882;BME280;7533;51.278;12.588;2023-02-20T07:18:39;100496.81;;;20.93;60.13
14882;BME280;7533;51.278;12.588;2023-02-20T07:23:43;100518.47;;;20.91;59.94
14882;BME280;7533;51.278;12.588;2023-02-20T07:28:47;100502.31;;;20.91;59.84
14882;BME280;7533;51.278;12.588;2023-02-20T07:33:49;100491.56;;;20.91;60.07
14882;BME280;7533;51.278;12.588;2023-02-20T07:38:53;100471.97;;;20.89;59.71
14882;BME280;7533;51.278;12.588;2023-02-20T07:43:58;100471.19;;;20.87;59.28
14882;BME280;7533;51.278;12.588;2023-02-20T07:49:01;100477.44;;;20.88;58.96
14882;BME280;7533;51.278;12.588;2023-02-20T07:54:05;100474.66;;;20.89;58.58
14882;BME280;7533;51.278;12.588;2023-02-20T07:59:09;100444.09;;;20.90;58.63
14882;BME280;7533;51.278;12.588;2023-02-20T08:04:12;100426.13;;;20.91;58.66
14882;BME280;7533;51.278;12.588;2023-02-20T08:09:15;100431.50;;;20.91;58.75
14882;BME280;7533;51.278;12.588;2023-02-20T08:14:19;100417.94;;;20.92;58.78
14882;BME280;7533;51.278;12.588;2023-02-20T08:19:22;100426.88;;;20.93;58.95
14882;BME280;7533;51.278;12.588;2023-02-20T08:24:25;100438.50;;;20.93;58.85
14882;BME280;7533;51.278;12.588;2023-02-20T08:29:29;100433.03;;;20.95;58.99
14882;BME280;7533;51.278;12.588;2023-02-20T08:34:32;100415.06;;;20.95;59.01
14882;BME280;7533;51.278;12.588;2023-02-20T08:39:35;100418.63;;;20.96;58.88
14882;BME280;7533;51.278;12.588;2023-02-20T08:44:40;100411.41;;;20.96;58.94
14882;BME280;7533;51.278;12.588;2023-02-20T08:49:45;100414.09;;;20.96;58.94
14882;BME280;7533;51.278;12.588;2023-02-20T08:54:48;100406.03;;;20.96;58.86
14882;BME280;7533;51.278;12.588;2023-02-20T08:59:52;100407.84;;;20.96;58.55
14882;BME280;7533;51.278;12.588;2023-02-20T09:04:56;100410.53;;;20.96;58.29
14882;BME280;7533;51.278;12.588;2023-02-20T09:09:59;100405.06;;;20.97;58.63
14882;BME280;7533;51.278;12.588;2023-02-20T09:15:03;100406.03;;;20.96;58.72
14882;BME280;7533;51.278;12.588;2023-02-20T09:20:06;100388.34;;;20.92;58.17
14882;BME280;7533;51.278;12.588;2023-02-20T09:25:11;100402.00;;;20.89;57.67
14882;BME280;7533;51.278;12.588;2023-02-20T09:30:16;100382.50;;;20.85;56.94
14882;BME280;7533;51.278;12.588;2023-02-20T09:35:23;100398.31;;;20.63;54.69
14882;BME280;7533;51.278;12.588;2023-02-20T09:40:29;100421.56;;;18.84;51.12
14882;BME280;7533;51.278;12.588;2023-02-20T09:45:35;100408.53;;;18.44;50.36
14882;BME280;7533;51.278;12.588;2023-02-20T09:50:43;100397.91;;;18.10;50.45
14882;BME280;7533;51.278;12.588;2023-02-20T09:55:51;100390.91;;;18.23;50.20
14882;BME280;7533;51.278;12.588;2023-02-20T10:00:59;100390.34;;;19.60;51.00
14882;BME280;7533;51.278;12.588;2023-02-20T10:06:15;100383.13;;;20.05;51.10
14882;BME280;7533;51.278;12.588;2023-02-20T10:11:27;100380.56;;;20.32;51.24
14882;BME280;7533;51.278;12.588;2023-02-20T10:16:40;100354.25;;;20.51;51.62
14882;BME280;7533;51.278;12.588;2023-02-20T10:21:50;100327.41;;;20.64;52.07
14882;BME280;7533;51.278;12.588;2023-02-20T10:27:03;100320.59;;;20.73;52.06
14882;BME280;7533;51.278;12.588;2023-02-20T10:32:17;100323.63;;;20.81;52.30
14882;BME280;7533;51.278;12.588;2023-02-20T10:37:24;100293.72;;;20.85;52.40
14882;BME280;7533;51.278;12.588;2023-02-20T10:42:51;100286.31;;;20.89;52.75
14882;BME280;7533;51.278;12.588;2023-02-20T10:48:02;100259.13;;;20.94;53.07
14882;BME280;7533;51.278;12.588;2023-02-20T10:53:15;100247.09;;;20.99;53.24
14882;BME280;7533;51.278;12.588;2023-02-20T10:58:26;100242.44;;;21.01;53.41
14882;BME280;7533;51.278;12.588;2023-02-20T11:03:39;100241.28;;;21.05;53.44
14882;BME280;7533;51.278;12.588;2023-02-20T11:08:44;100238.34;;;21.08;53.33
14882;BME280;7533;51.278;12.588;2023-02-20T11:13:48;100238.16;;;21.11;53.80
14882;BME280;7533;51.278;12.588;2023-02-20T11:19:02;100216.94;;;21.20;54.84
14882;BME280;7533;51.278;12.588;2023-02-20T11:24:19;100216.09;;;21.19;54.75
14882;BME280;7533;51.278;12.588;2023-02-20T11:29:23;100203.56;;;20.93;51.77
14882;BME280;7533;51.278;12.588;2023-02-20T11:34:29;100194.44;;;21.08;53.66
14882;BME280;7533;51.278;12.588;2023-02-20T11:39:34;100187.03;;;21.11;53.76
14882;BME280;7533;51.278;12.588;2023-02-20T11:44:37;100179.50;;;21.17;53.97
14882;BME280;7533;51.278;12.588;2023-02-20T11:49:41;100175.59;;;21.21;53.90
14882;BME280;7533;51.278;12.588;2023-02-20T11:54:44;100160.13;;;21.24;53.76
14882;BME280;7533;51.278;12.588;2023-02-20T11:59:48;100147.31;;;21.28;53.68
14882;BME280;7533;51.278;12.588;2023-02-20T12:05:13;100143.56;;;21.30;54.23
14882;BME280;7533;51.278;12.588;2023-02-20T12:10:28;100137.13;;;21.33;54.27
14882;BME280;7533;51.278;12.588;2023-02-20T12:15:32;100128.81;;;21.36;54.26
14882;BME280;7533;51.278;12.588;2023-02-20T12:20:40;100120.59;;;21.37;54.27
14882;BME280;7533;51.278;12.588;2023-02-20T12:25:58;100121.47;;;21.38;54.37
14882;BME280;7533;51.278;12.588;2023-02-20T12:31:15;100108.00;;;21.38;54.09
14882;BME280;7533;51.278;12.588;2023-02-20T12:36:30;100105.31;;;21.38;54.12
14882;BME280;7533;51.278;12.588;2023-02-20T12:41:51;100103.38;;;21.40;54.06
14882;BME280;7533;51.278;12.588;2023-02-20T12:47:07;100100.56;;;21.42;54.18
14882;BME280;7533;51.278;12.588;2023-02-20T12:52:28;100095.84;;;21.45;54.09
14882;BME280;7533;51.278;12.588;2023-02-20T12:57:41;100095.41;;;21.51;53.78
14882;BME280;7533;51.278;12.588;2023-02-20T13:02:48;100089.16;;;21.51;53.76
14882;BME280;7533;51.278;12.588;2023-02-20T13:07:55;100081.28;;;21.48;53.63
14882;BME280;7533;51.278;12.588;2023-02-20T13:12:58;100066.97;;;21.47;53.77
14882;BME280;7533;51.278;12.588;2023-02-20T13:18:08;100071.50;;;21.47;53.81
14882;BME280;7533;51.278;12.588;2023-02-20T13:23:28;100079.66;;;21.58;53.89
14882;BME280;7533;51.278;12.588;2023-02-20T13:28:35;100063.69;;;21.55;53.67
14882;BME280;7533;51.278;12.588;2023-02-20T13:33:44;100069.84;;;21.57;53.74
14882;BME280;7533;51.278;12.588;2023-02-20T13:39:26;100057.78;;;21.62;53.29
14882;BME280;7533;51.278;12.588;2023-02-20T13:44:39;100046.22;;;21.73;53.61
14882;BME280;7533;51.278;12.588;2023-02-20T13:49:54;100035.81;;;21.80;53.67
14882;BME280;7533;51.278;12.588;2023-02-20T13:55:04;100037.94;;;21.87;53.72
14882;BME280;7533;51.278;12.588;2023-02-20T14:00:41;100042.94;;;21.81;54.28
14882;BME280;7533;51.278;12.588;2023-02-20T14:06:00;100039.50;;;21.79;53.87
14882;BME280;7533;51.278;12.588;2023-02-20T14:11:05;100043.38;;;21.75;54.19
14882;BME280;7533;51.278;12.588;2023-02-20T14:16:26;100051.75;;;21.83;55.29
14882;BME280;7533;51.278;12.588;2023-02-20T14:21:32;100047.91;;;21.74;56.10
14882;BME280;7533;51.278;12.588;2023-02-20T14:26:37;100079.59;;;21.71;56.30
14882;BME280;7533;51.278;12.588;2023-02-20T14:31:41;100045.81;;;21.67;56.34
14882;BME280;7533;51.278;12.588;2023-02-20T14:36:59;100035.13;;;21.65;56.30
14882;BME280;7533;51.278;12.588;2023-02-20T14:42:12;100030.72;;;21.64;56.59
14882;BME280;7533;51.278;12.588;2023-02-20T14:47:16;100031.69;;;21.63;56.73
14882;BME280;7533;51.278;12.588;2023-02-20T14:52:22;100021.03;;;21.61;56.78
14882;BME280;7533;51.278;12.588;2023-02-20T14:57:28;100032.56;;;21.63;56.63
14882;BME280;7533;51.278;12.588;2023-02-20T15:02:32;100031.91;;;21.60;56.89
14882;BME280;7533;51.278;12.588;2023-02-20T15:07:37;100042.59;;;21.61;56.84
14882;BME280;7533;51.278;12.588;2023-02-20T15:12:42;100062.75;;;21.56;57.08
14882;BME280;7533;51.278;12.588;2023-02-20T15:17:46;100051.47;;;21.51;57.43
14882;BME280;7533;51.278;12.588;2023-02-20T15:22:48;100059.63;;;21.49;57.45
14882;BME280;7533;51.278;12.588;2023-02-20T15:28:08;100057.28;;;21.45;57.46
14882;BME280;7533;51.278;12.588;2023-02-20T15:33:12;100071.81;;;21.42;57.38
14882;BME280;7533;51.278;12.588;2023-02-20T15:38:16;100063.13;;;21.38;57.76
14882;BME280;7533;51.278;12.588;2023-02-20T15:43:20;100058.81;;;21.36;58.07
14882;BME280;7533;51.278;12.588;2023-02-20T15:48:43;100077.78;;;21.34;58.15
14882;BME280;7533;51.278;12.588;2023-02-20T15:53:46;100082.38;;;21.32;58.27
14882;BME280;7533;51.278;12.588;2023-02-20T15:58:50;100092.41;;;21.30;58.33
14882;BME280;7533;51.278;12.588;2023-02-20T16:03:53;100103.25;;;21.29;58.32
14882;BME280;7533;51.278;12.588;2023-02-20T16:08:56;100105.19;;;21.27;58.59
14882;BME280;7533;51.278;12.588;2023-02-20T16:14:01;100094.53;;;21.25;58.44
14882;BME280;7533;51.278;12.588;2023-02-20T16:19:11;100097.34;;;21.24;58.45
14882;BME280;7533;51.278;12.588;2023-02-20T16:24:15;100086.59;;;21.24;58.43
14882;BME280;7533;51.278;12.588;2023-02-20T16:29:22;100092.94;;;21.23;58.71
14882;BME280;7533;51.278;12.588;2023-02-20T16:34:30;100099.31;;;21.22;58.68
14882;BME280;7533;51.278;12.588;2023-02-20T16:39:33;100099.31;;;21.22;58.67
14882;BME280;7533;51.278;12.588;2023-02-20T16:44:41;100113.69;;;21.21;59.08
14882;BME280;7533;51.278;12.588;2023-02-20T16:49:47;100127.59;;;21.14;58.90
14882;BME280;7533;51.278;12.588;2023-02-20T16:54:50;100118.47;;;21.17;59.09
14882;BME280;7533;51.278;12.588;2023-02-20T16:59:57;100138.28;;;21.16;59.16
14882;BME280;7533;51.278;12.588;2023-02-20T17:05:00;100143.66;;;21.16;59.32
14882;BME280;7533;51.278;12.588;2023-02-20T17:10:03;100135.59;;;21.16;59.15
14882;BME280;7533;51.278;12.588;2023-02-20T17:15:10;100145.47;;;21.16;59.44
14882;BME280;7533;51.278;12.588;2023-02-20T17:20:15;100167.44;;;21.22;61.21
14882;BME280;7533;51.278;12.588;2023-02-20T17:25:20;100159.38;;;21.22;62.34
14882;BME280;7533;51.278;12.588;2023-02-20T17:30:25;100166.78;;;21.19;62.17
14882;BME280;7533;51.278;12.588;2023-02-20T17:35:28;100177.75;;;21.16;61.91
14882;BME280;7533;51.278;12.588;2023-02-20T17:40:31;100185.81;;;21.16;61.55
14882;BME280;7533;51.278;12.588;2023-02-20T17:45:35;100183.13;;;21.16;61.17
14882;BME280;7533;51.278;12.588;2023-02-20T17:50:38;100179.59;;;21.15;61.06
14882;BME280;7533;51.278;12.588;2023-02-20T17:55:41;100176.03;;;21.14;61.02
14882;BME280;7533;51.278;12.588;2023-02-20T18:00:45;100167.00;;;21.16;61.13
14882;BME280;7533;51.278;12.588;2023-02-20T18:05:48;100166.78;;;21.19;60.73
14882;BME280;7533;51.278;12.588;2023-02-20T18:10:51;100157.41;;;21.24;60.68
14882;BME280;7533;51.278;12.588;2023-02-20T18:15:55;100161.34;;;21.33;60.19
14882;BME280;7533;51.278;12.588;2023-02-20T18:20:59;100182.00;;;21.45;59.85
14882;BME280;7533;51.278;12.588;2023-02-20T18:26:01;100177.91;;;21.52;59.51
14882;BME280;7533;51.278;12.588;2023-02-20T18:31:06;100172.81;;;21.60;59.32
14882;BME280;7533;51.278;12.588;2023-02-20T18:36:09;100172.41;;;21.67;59.41
14882;BME280;7533;51.278;12.588;2023-02-20T18:41:12;100172.91;;;21.72;59.01
14882;BME280;7533;51.278;12.588;2023-02-20T18:46:25;100170.75;;;21.77;58.91
14882;BME280;7533;51.278;12.588;2023-02-20T18:51:29;100166.66;;;21.84;58.96
14882;BME280;7533;51.278;12.588;2023-02-20T18:56:33;100163.50;;;21.90;58.96
14882;BME280;7533;51.278;12.588;2023-02-20T19:01:40;100160.69;;;21.91;58.27
14882;BME280;7533;51.278;12.588;2023-02-20T19:06:44;100151.41;;;21.96;58.42
14882;BME280;7533;51.278;12.588;2023-02-20T19:11:48;100142.03;;;22.01;58.52
14882;BME280;7533;51.278;12.588;2023-02-20T19:16:55;100141.03;;;22.02;57.98
14882;BME280;7533;51.278;12.588;2023-02-20T19:21:58;100155.78;;;22.09;58.10
14882;BME280;7533;51.278;12.588;2023-02-20T19:27:01;100156.66;;;22.10;58.04
14882;BME280;7533;51.278;12.588;2023-02-20T19:32:05;100151.69;;;22.16;57.77
14882;BME280;7533;51.278;12.588;2023-02-20T19:37:09;100161.06;;;22.24;57.47
14882;BME280;7533;51.278;12.588;2023-02-20T19:42:12;100176.13;;;22.26;57.68
14882;BME280;7533;51.278;12.588;2023-02-20T19:47:18;100180.97;;;22.34;57.41
14882;BME280;7533;51.278;12.588;2023-02-20T19:52:21;100182.56;;;22.36;57.42
14882;BME280;7533;51.278;12.588;2023-02-20T19:57:24;100182.22;;;22.41;57.28
14882;BME280;7533;51.278;12.588;2023-02-20T20:02:28;100179.19;;;22.46;57.17
14882;BME280;7533;51.278;12.588;2023-02-20T20:07:31;100167.53;;;22.45;57.25
14882;BME280;7533;51.278;12.588;2023-02-20T20:12:34;100168.91;;;22.51;56.86
14882;BME280;7533;51.278;12.588;2023-02-20T20:17:52;100169.78;;;22.51;56.74
14882;BME280;7533;51.278;12.588;2023-02-20T20:22:57;100153.22;;;22.56;56.71
14882;BME280;7533;51.278;12.588;2023-02-20T20:28:02;100142.69;;;22.53;56.52
14882;BME280;7533;51.278;12.588;2023-02-20T20:33:09;100138.13;;;22.53;56.38
14882;BME280;7533;51.278;12.588;2023-02-20T20:38:12;100131.03;;;22.52;56.46
14882;BME280;7533;51.278;12.588;2023-02-20T20:43:14;100116.94;;;22.60;56.28
14882;BME280;7533;51.278;12.588;2023-02-20T20:48:19;100126.66;;;22.62;56.36
14882;BME280;7533;51.278;12.588;2023-02-20T20:53:22;100128.59;;;22.60;55.69
14882;BME280;7533;51.278;12.588;2023-02-20T20:58:25;100133.88;;;22.62;55.55
14882;BME280;7533;51.278;12.588;2023-02-20T21:03:29;100136.34;;;22.65;55.65
14882;BME280;7533;51.278;12.588;2023-02-20T21:08:32;100125.31;;;22.68;55.38
14882;BME280;7533;51.278;12.588;2023-02-20T21:13:35;100111.72;;;22.69;55.27
14882;BME280;7533;51.278;12.588;2023-02-20T21:18:39;100102.75;;;22.69;55.06
14882;BME280;7533;51.278;12.588;2023-02-20T21:23:42;100114.16;;;22.73;54.96
14882;BME280;7533;51.278;12.588;2023-02-20T21:28:45;100115.03;;;22.73;55.15
14882;BME280;7533;51.278;12.588;2023-02-20T21:33:51;100116.97;;;22.71;55.32
14882;BME280;7533;51.278;12.588;2023-02-20T21:38:54;100117.59;;;22.75;54.92
14882;BME280;7533;51.278;12.588;2023-02-20T21:43:58;100112.94;;;22.77;55.06
14882;BME280;7533;51.278;12.588;2023-02-20T21:49:20;100098.47;;;22.78;54.69
14882;BME280;7533;51.278;12.588;2023-02-20T21:54:24;100087.31;;;22.82;54.75
14882;BME280;7533;51.278;12.588;2023-02-20T21:59:28;100092.84;;;22.81;54.69
14882;BME280;7533;51.278;12.588;2023-02-20T22:04:31;100097.97;;;22.84;54.78
14882;BME280;7533;51.278;12.588;2023-02-20T22:09:33;100093.69;;;22.81;55.21
14882;BME280;7533;51.278;12.588;2023-02-20T22:14:53;100092.97;;;22.79;55.07
14882;BME280;7533;51.278;12.588;2023-02-20T22:20:15;100090.75;;;22.73;54.92
14882;BME280;7533;51.278;12.588;2023-02-20T22:25:35;100097.22;;;22.70;55.08
14882;BME280;7533;51.278;12.588;2023-02-20T22:30:58;100098.84;;;22.73;54.86
14882;BME280;7533;51.278;12.588;2023-02-20T22:36:20;100098.34;;;22.68;54.72
14882;BME280;7533;51.278;12.588;2023-02-20T22:41:41;100097.50;;;22.67;54.74
14882;BME280;7533;51.278;12.588;2023-02-20T22:47:01;100099.19;;;22.68;54.96
14882;BME280;7533;51.278;12.588;2023-02-20T22:52:23;100085.81;;;22.67;54.73
14882;BME280;7533;51.278;12.588;2023-02-20T22:57:43;100079.81;;;22.63;54.81
14882;BME280;7533;51.278;12.588;2023-02-20T23:03:04;100072.44;;;22.65;54.93
14882;BME280;7533;51.278;12.588;2023-02-20T23:08:26;100079.69;;;22.65;54.90
14882;BME280;7533;51.278;12.588;2023-02-20T23:13:46;100082.00;;;22.58;54.81
14882;BME280;7533;51.278;12.588;2023-02-20T23:19:06;100081.53;;;22.64;55.00
14882;BME280;7533;51.278;12.588;2023-02-20T23:24:30;100079.31;;;22.58;54.80
14882;BME280;7533;51.278;12.588;2023-02-20T23:29:51;100080.03;;;22.60;55.18
14882;BME280;7533;51.278;12.588;2023-02-20T23:35:12;100079.94;;;22.62;55.25
14882;BME280;7533;51.278;12.588;2023-02-20T23:40:34;100090.72;;;22.62;55.24
14882;BME280;7533;51.278;12.588;2023-02-20T23:45:54;100090.81;;;22.60;55.10
14882;BME280;7533;51.278;12.588;2023-02-20T23:51:14;100083.97;;;22.56;55.16
14882;BME280;7533;51.278;12.588;2023-02-20T23:56:36;100093.00;;;22.55;55.45
